To NAV CANADA Home Page Login to a new session Search on AWWS site Feedback and Comments Disclaimer Vers la page française équivalente Tips FAQ What's new on the site To the Forecasts and Observations / NOTAM section To "File a Flight Plan" website Publications and other links Update of the User's profile FIC Telephone Numbers My Weather Data Folder Route Weather Data Regional Weather Data Local Weather Data To the Forecasts and Observations / NOTAM section
Request Generated 12/04/2016 at 22:19:04 UTC . Weather information available at that time is displayed.

METAR/TAF

ROBERVAL/QC    

METAR CYRJ 042200Z 24003KT 25SM FEW015 M13/M15 A3021 RMK SC1 SC TR
SLP249=
METAR CYRJ 042100Z 00000KT 25SM FEW015 FEW070 M10/M12 A3022 RMK
SC1AS1 SC TR AS TR SLP249=
METAR CYRJ 042000Z 32003KT 25SM FEW015 M08/M12 A3021 RMK SC1 SC TR
SLP246=

TAF CYRJ 041939Z 0420/0503 31005KT P6SM FEW020
RMK NXT FCST WILL BE ISSUED AT 051245Z=
Your time UTC time
Weather data provided by Environment Canada and NAV CANADA